Aérodrome :
LOGIN :

S'inscrire | Disclaimer

   EN    FR    IT 

 










Légende :    VFR   VFR Marginal   IFR   IFR Intensif   IFR Très Intensif
Visi : 
Plafond : 
>= 8 km
>= 3000ft
5 à 8 km
1000 à 3000 ft
1500m à 5 km
500 à 1000 ft
800 à 1500m
200 à 500 ft
< 800m
< 200 ft
Symboles :   Orages  Brouillard  Fortes neiges  Fortes précipitations  Vent > 20 kt
SIGMETs :   Divers  Orages  Givrage  Turbulence  Onde Orograph.  Cendres Volcan.






- Altitude de l'aérodrome : 1768 ft


LEHC - Huesca Pirineos

DERNIER METAR :
  • 071400Z 26006KT 220V320 CAVOK 10/07 Q1022

METARs EXPIRÉS :
  • 071330Z 27005KT 210V010 9999 FEW009 10/07 Q1023
  • 071300Z 24005KT 9999 FEW009 10/07 Q1023
  • 071230Z 25006KT 210V290 9999 SCT009 09/07 Q1023
  • 071200Z 27005KT 160V330 9999 SCT008 09/07 Q1023
  • 071130Z 27005KT 230V320 9999 FEW020 08/06 Q1024

TAF AMD TAF LEHC
Valide du 07 à 09h jusqu'au 08 à 09h UTC


070837Z 0709/0809 VRB04KT 9999 FEW030 TX12/0714Z TN03/0806Z
PROB30
TEMPO 0709/0710 0500 FG VV005
TEMPO 0718/0809 3000 BR BKN010
PROB40
TEMPO 0800/0809 0800 FG VV005



MET'MAP, la Météo Aéronautique d'un coup d'oeil ! - Copyright ORBIFLY Décembre 2007 - Disclaimer

ORBIFLY MET'MAP TEAM :

Programmation & Développement : Alexandra Zaïnal
Sur une idée originale de : Baudouin d'Aumeries
Assistance à la programmation : Marc-Olivier Méhu
Soutien technique & logistique : Manuel Goepfert

Contact : metmap@orbifly.com




SOURCES & CREDITS :

   NOAA